createdAt,value
2017-12-02T00:00:16.383Z,58.90
2017-12-02T00:02:45.275Z,61.30
2017-12-02T00:05:14.245Z,64.20
2017-12-02T00:07:43.163Z,66.20
2017-12-02T00:10:11.876Z,66.90
2017-12-02T00:12:40.881Z,68.30
2017-12-02T00:15:10.429Z,68.00
2017-12-02T00:17:38.996Z,68.30
2017-12-02T00:20:08.126Z,66.20
2017-12-02T00:22:37.384Z,65.30
2017-12-02T00:25:07.355Z,62.80
2017-12-02T00:27:36.841Z,60.60
2017-12-02T00:30:06.068Z,60.60
2017-12-02T00:32:35.239Z,59.70
2017-12-02T00:35:03.982Z,59.80
2017-12-02T00:37:33.043Z,63.10
2017-12-02T00:40:01.840Z,62.60
2017-12-02T00:42:30.714Z,64.40
2017-12-02T00:44:59.702Z,64.80
2017-12-02T00:47:28.306Z,64.80
2017-12-02T00:49:57.312Z,62.60
2017-12-02T00:52:26.166Z,61.90
2017-12-02T00:54:55.510Z,61.50
2017-12-02T00:57:24.334Z,61.50
2017-12-02T00:59:53.556Z,59.70
2017-12-02T01:02:22.617Z,59.70
2017-12-02T01:04:51.757Z,58.60
2017-12-02T01:07:20.581Z,57.40
2017-12-02T01:09:49.478Z,57.30
2017-12-02T01:12:18.738Z,56.30
2017-12-02T01:14:48.425Z,56.30
2017-12-02T01:17:16.699Z,57.00
2017-12-02T01:19:44.974Z,58.20
2017-12-02T01:22:13.231Z,58.00
2017-12-02T01:24:42.717Z,57.40
2017-12-02T01:27:11.492Z,56.60
2017-12-02T01:29:40.132Z,57.30
2017-12-02T01:32:08.385Z,57.30
2017-12-02T01:34:36.648Z,56.40
2017-12-02T01:37:04.903Z,56.10
2017-12-02T01:39:33.556Z,56.10
2017-12-02T01:42:01.801Z,56.10
2017-12-02T01:44:30.048Z,56.10
2017-12-02T01:46:58.844Z,57.40
2017-12-02T01:49:27.192Z,57.40
2017-12-02T01:51:55.504Z,58.00
2017-12-02T01:54:23.740Z,59.20
2017-12-02T01:56:52.036Z,60.60
2017-12-02T01:59:20.673Z,64.00
2017-12-02T02:01:48.926Z,64.00
2017-12-02T02:04:17.193Z,66.00
2017-12-02T02:06:45.471Z,66.70
2017-12-02T02:09:13.723Z,68.20
2017-12-02T02:11:42.416Z,71.60
2017-12-02T02:14:10.666Z,71.60
2017-12-02T02:16:39.148Z,73.20
2017-12-02T02:19:07.464Z,73.90
2017-12-02T02:21:35.702Z,74.30
2017-12-02T02:24:03.944Z,74.60
2017-12-02T02:26:32.188Z,73.00
2017-12-02T02:29:00.438Z,71.20
2017-12-02T02:31:28.713Z,68.00
2017-12-02T02:33:57.363Z,66.60
2017-12-02T02:36:25.593Z,66.60
2017-12-02T02:38:53.835Z,65.10
2017-12-02T02:41:22.080Z,63.90
2017-12-02T02:43:50.322Z,61.90
2017-12-02T02:46:18.562Z,62.60
2017-12-02T02:48:46.833Z,63.70
2017-12-02T02:51:15.081Z,64.40
2017-12-02T02:53:43.326Z,63.70
2017-12-02T02:56:11.597Z,65.30
2017-12-02T02:58:40.232Z,65.50
2017-12-02T03:01:08.884Z,65.50
2017-12-02T03:03:37.989Z,68.20
2017-12-02T03:06:06.689Z,68.20
2017-12-02T03:08:35.408Z,70.10
2017-12-02T03:11:04.717Z,71.60
2017-12-02T03:13:35.008Z,72.30
2017-12-02T03:16:05.351Z,73.90
2017-12-02T03:18:34.241Z,74.60
2017-12-02T03:21:03.006Z,74.60
2017-12-02T03:23:32.155Z,74.60
2017-12-02T03:26:01.263Z,74.10
2017-12-02T03:28:31.512Z,73.70
2017-12-02T03:31:00.440Z,74.50
2017-12-02T03:33:29.068Z,74.80
2017-12-02T03:35:58.143Z,75.20
2017-12-02T03:38:29.080Z,74.50
2017-12-02T03:41:02.860Z,74.60
2017-12-02T03:43:33.896Z,74.60
2017-12-02T03:46:04.509Z,75.00
2017-12-02T03:48:42.097Z,74.80
2017-12-02T03:51:15.630Z,75.50
2017-12-02T03:53:45.622Z,76.10
2017-12-02T03:56:14.417Z,73.00
2017-12-02T03:58:42.657Z,73.00
2017-12-02T04:01:10.918Z,70.30
2017-12-02T04:03:39.169Z,70.10
2017-12-02T04:06:07.841Z,66.20
2017-12-02T04:08:36.214Z,66.20
2017-12-02T04:11:04.456Z,64.40
2017-12-02T04:13:32.709Z,64.20
2017-12-02T04:16:20.922Z,63.00
2017-12-02T04:18:50.225Z,63.70
2017-12-02T04:21:18.873Z,63.10
2017-12-02T04:23:47.547Z,63.10
2017-12-02T04:26:19.470Z,64.90
2017-12-02T04:28:51.859Z,67.40
2017-12-02T04:31:21.557Z,67.40
2017-12-02T04:33:49.795Z,67.30
2017-12-02T04:36:18.172Z,65.50
2017-12-02T04:38:46.409Z,65.30
2017-12-02T04:41:15.068Z,64.00
2017-12-02T04:43:53.535Z,65.10
2017-12-02T04:46:23.752Z,62.10
2017-12-02T04:48:52.017Z,63.30
2017-12-02T04:51:20.277Z,63.50
2017-12-02T04:53:48.971Z,64.80
2017-12-02T04:56:17.334Z,65.10
2017-12-02T04:58:45.630Z,66.00
2017-12-02T05:01:13.883Z,66.60
2017-12-02T05:03:42.119Z,67.10
2017-12-02T05:06:10.405Z,68.00
2017-12-02T05:08:38.644Z,68.30
2017-12-02T05:11:06.915Z,67.40
2017-12-02T05:13:35.164Z,66.40
2017-12-02T05:16:03.429Z,65.80
2017-12-02T05:18:31.688Z,65.10
2017-12-02T05:21:00.341Z,66.90
2017-12-02T05:23:28.599Z,66.90
2017-12-02T05:25:56.853Z,66.00
2017-12-02T05:28:25.152Z,67.10
2017-12-02T05:30:53.788Z,65.10
2017-12-02T05:33:22.420Z,64.40
2017-12-02T05:35:50.664Z,64.40
2017-12-02T05:38:18.916Z,63.10
2017-12-02T05:40:47.576Z,61.90
2017-12-02T05:43:15.811Z,62.10
2017-12-02T05:45:44.081Z,60.00
2017-12-02T05:48:12.332Z,59.10
2017-12-02T05:50:40.981Z,60.10
2017-12-02T05:53:09.549Z,60.10
2017-12-02T05:55:37.800Z,59.50
2017-12-02T05:58:06.056Z,60.40
2017-12-02T06:00:34.740Z,63.00
2017-12-02T06:03:03.384Z,63.00
2017-12-02T06:05:31.637Z,62.80
2017-12-02T06:07:59.888Z,61.90
2017-12-02T06:10:29.093Z,60.30
2017-12-02T06:12:57.341Z,59.50
2017-12-02T06:15:25.995Z,59.70
2017-12-02T06:17:54.252Z,59.70
2017-12-02T06:20:22.510Z,60.00
2017-12-02T06:22:51.349Z,59.80
2017-12-02T06:25:19.605Z,60.30
2017-12-02T06:27:48.019Z,60.00
2017-12-02T06:30:16.332Z,61.90
2017-12-02T06:32:44.584Z,62.60
2017-12-02T06:35:12.844Z,63.10
2017-12-02T06:37:41.115Z,63.30
2017-12-02T06:40:09.356Z,64.00
2017-12-02T06:42:37.594Z,64.80
2017-12-02T06:45:05.868Z,62.60
2017-12-02T06:47:34.504Z,59.50
2017-12-02T06:50:02.748Z,59.40
2017-12-02T06:52:31.048Z,58.80
2017-12-02T06:54:59.317Z,58.20
2017-12-02T06:57:27.556Z,57.30
2017-12-02T06:59:55.828Z,57.30
2017-12-02T07:02:24.470Z,58.50
2017-12-02T07:04:52.704Z,58.50
2017-12-02T07:07:20.980Z,58.20
2017-12-02T07:09:49.233Z,57.00
2017-12-02T07:12:17.882Z,55.80
2017-12-02T07:14:46.141Z,55.80
2017-12-02T07:17:14.377Z,58.00
2017-12-02T07:19:43.331Z,62.20
2017-12-02T07:22:11.570Z,62.20
2017-12-02T07:24:39.806Z,61.00
2017-12-02T07:27:08.057Z,60.80
2017-12-02T07:29:36.369Z,61.30
2017-12-02T07:32:04.739Z,59.80
2017-12-02T07:34:33.389Z,58.30
2017-12-02T07:37:01.670Z,58.30
2017-12-02T07:39:30.542Z,57.70
2017-12-02T07:41:59.130Z,58.30
2017-12-02T07:44:27.715Z,58.00
2017-12-02T07:46:56.314Z,57.30
2017-12-02T07:49:25.199Z,57.00
2017-12-02T07:51:53.439Z,57.00
2017-12-02T07:54:21.732Z,56.00
2017-12-02T07:56:49.989Z,54.90
2017-12-02T07:59:18.251Z,56.00
2017-12-02T08:01:46.534Z,56.30
2017-12-02T08:04:14.776Z,56.30
2017-12-02T08:06:43.138Z,56.40
2017-12-02T08:09:11.376Z,59.80
2017-12-02T08:11:39.629Z,57.30
2017-12-02T08:14:07.923Z,58.60
2017-12-02T08:16:36.192Z,58.90
2017-12-02T08:19:04.436Z,57.00
2017-12-02T08:21:33.081Z,56.90
2017-12-02T08:24:01.402Z,56.90
2017-12-02T08:26:30.068Z,52.10
2017-12-02T08:28:58.379Z,52.10
2017-12-02T08:31:26.748Z,52.70
2017-12-02T08:33:54.995Z,50.90
2017-12-02T08:36:23.290Z,50.10
2017-12-02T08:38:52.000Z,51.10
2017-12-02T08:41:20.266Z,51.10
2017-12-02T08:43:48.976Z,49.50
2017-12-02T08:46:17.279Z,49.50
2017-12-02T08:48:45.493Z,50.90
2017-12-02T08:51:14.152Z,52.60
2017-12-02T08:53:42.399Z,52.60
2017-12-02T08:56:10.652Z,53.90
2017-12-02T08:58:38.916Z,54.50
2017-12-02T09:01:07.161Z,56.40
2017-12-02T09:03:35.408Z,57.60
2017-12-02T09:06:03.700Z,59.50
2017-12-02T09:08:31.976Z,60.80
2017-12-02T09:11:00.213Z,61.90
2017-12-02T09:13:28.571Z,61.30
2017-12-02T09:15:57.202Z,59.70
2017-12-02T09:18:25.464Z,59.70
2017-12-02T09:20:53.724Z,59.20
2017-12-02T09:23:21.968Z,58.80
2017-12-02T09:25:50.208Z,59.50
2017-12-02T09:28:18.460Z,62.20
2017-12-02T09:30:46.734Z,57.40
2017-12-02T09:33:14.955Z,56.30
2017-12-02T09:35:43.532Z,53.50
2017-12-02T09:38:12.023Z,52.70
2017-12-02T09:40:40.255Z,52.30
2017-12-02T09:43:08.525Z,55.50
2017-12-02T09:45:36.761Z,54.20
2017-12-02T09:48:05.395Z,56.40
2017-12-02T09:50:33.660Z,56.40
2017-12-02T09:53:01.912Z,59.50
2017-12-02T09:55:31.256Z,54.50
2017-12-02T09:57:59.508Z,54.50
2017-12-02T10:00:27.780Z,57.60
2017-12-02T10:02:56.032Z,54.30
2017-12-02T10:05:24.668Z,51.80
2017-12-02T10:07:52.911Z,51.80
2017-12-02T10:10:21.189Z,50.70
2017-12-02T10:12:49.476Z,50.40
2017-12-02T10:15:17.742Z,48.00
2017-12-02T10:17:45.987Z,41.60
2017-12-02T10:20:14.635Z,40.30
2017-12-02T10:22:43.080Z,40.30
2017-12-02T10:25:11.337Z,41.90
2017-12-02T10:27:40.013Z,32.00
2017-12-02T10:30:08.668Z,34.20
2017-12-02T10:32:36.932Z,34.20
2017-12-02T10:35:05.215Z,33.20
2017-12-02T10:37:33.463Z,32.60
2017-12-02T10:40:01.750Z,31.90
2017-12-02T10:42:29.994Z,32.50
2017-12-02T10:44:58.323Z,39.30
2017-12-02T10:47:26.573Z,34.20
2017-12-02T10:49:54.902Z,40.70
2017-12-02T10:52:23.151Z,36.60
2017-12-02T10:54:51.412Z,28.70
2017-12-02T10:57:19.672Z,35.00
2017-12-02T10:59:47.982Z,34.10
2017-12-02T11:02:16.268Z,29.60
2017-12-02T11:04:44.606Z,32.30
2017-12-02T11:07:12.856Z,26.20
2017-12-02T11:09:41.501Z,29.60
2017-12-02T11:12:09.791Z,29.60
2017-12-02T11:14:38.028Z,32.20
2017-12-02T11:17:06.278Z,29.50
2017-12-02T11:19:34.524Z,32.30
2017-12-02T11:22:04.122Z,35.30
2017-12-02T11:24:32.335Z,35.30
2017-12-02T11:27:00.613Z,33.70
2017-12-02T11:29:28.908Z,32.30
2017-12-02T11:31:57.188Z,35.30
2017-12-02T11:34:25.484Z,30.60
2017-12-02T11:36:53.768Z,36.90
2017-12-02T11:39:22.012Z,37.20
2017-12-02T11:41:50.727Z,35.90
2017-12-02T11:44:18.996Z,36.20
2017-12-02T11:46:47.242Z,35.40
2017-12-02T11:49:15.522Z,34.10
2017-12-02T11:51:43.773Z,29.00
2017-12-02T11:54:12.033Z,31.60
2017-12-02T11:56:40.301Z,32.80
2017-12-02T11:59:08.532Z,41.80
2017-12-02T12:01:36.825Z,33.50
2017-12-02T12:04:05.452Z,36.20
2017-12-02T12:06:33.684Z,35.10
2017-12-02T12:09:01.978Z,32.60
2017-12-02T12:11:30.252Z,35.90
2017-12-02T12:13:58.490Z,39.10
2017-12-02T12:16:26.801Z,47.80
2017-12-02T12:18:55.048Z,38.10
2017-12-02T12:21:23.300Z,39.10
2017-12-02T12:23:51.559Z,40.20
2017-12-02T12:26:19.833Z,49.90
2017-12-02T12:28:48.556Z,43.60
2017-12-02T12:31:17.051Z,43.60
2017-12-02T12:33:45.333Z,47.80
2017-12-02T12:36:13.572Z,43.40
2017-12-02T12:38:41.832Z,39.90
2017-12-02T12:41:10.463Z,42.80
2017-12-02T12:43:38.784Z,42.70
2017-12-02T12:46:07.027Z,41.20
2017-12-02T12:48:35.627Z,47.10
2017-12-02T12:51:03.893Z,44.00
2017-12-02T12:53:32.143Z,41.20
2017-12-02T12:56:00.389Z,51.70
2017-12-02T12:58:28.711Z,51.20
2017-12-02T13:00:56.977Z,45.80
2017-12-02T13:03:25.228Z,39.10
2017-12-02T13:05:53.547Z,43.40
2017-12-02T13:08:21.792Z,47.10
2017-12-02T13:10:50.068Z,43.90
2017-12-02T13:13:18.331Z,36.60
2017-12-02T13:15:46.585Z,44.00
2017-12-02T13:18:15.331Z,48.00
2017-12-02T13:20:43.597Z,48.00
2017-12-02T13:23:11.839Z,46.80
2017-12-02T13:25:41.199Z,42.20
2017-12-02T13:28:10.934Z,44.70
2017-12-02T13:30:39.923Z,45.00
2017-12-02T13:33:08.824Z,42.40
2017-12-02T13:35:37.756Z,41.80
2017-12-02T13:38:06.151Z,46.10
2017-12-02T13:40:34.447Z,48.30
2017-12-02T13:43:02.830Z,48.30
2017-12-02T13:45:31.116Z,43.00
2017-12-02T13:47:59.776Z,44.10
2017-12-02T13:50:28.029Z,44.10
2017-12-02T13:52:56.281Z,44.60
2017-12-02T13:55:25.009Z,50.10
2017-12-02T13:57:54.327Z,44.00
2017-12-02T14:00:22.654Z,44.00
2017-12-02T14:02:51.274Z,47.50
2017-12-02T14:05:19.543Z,46.70
2017-12-02T14:07:47.780Z,51.70
2017-12-02T14:10:16.048Z,49.60
2017-12-02T14:12:44.307Z,49.90
2017-12-02T14:15:12.955Z,50.80
2017-12-02T14:17:41.508Z,50.80
2017-12-02T14:20:10.025Z,45.80
2017-12-02T14:22:38.716Z,46.70
2017-12-02T14:25:07.192Z,46.70
2017-12-02T14:27:35.448Z,48.30
2017-12-02T14:30:03.681Z,50.80
2017-12-02T14:32:32.619Z,49.20
2017-12-02T14:35:00.890Z,49.20
2017-12-02T14:37:29.237Z,49.30
2017-12-02T14:39:57.543Z,50.90
2017-12-02T14:42:25.923Z,49.80
2017-12-02T14:44:54.168Z,49.60
2017-12-02T14:47:22.408Z,50.40
2017-12-02T14:49:51.049Z,49.20
2017-12-02T14:52:19.411Z,49.20
2017-12-02T14:54:47.911Z,49.90
2017-12-02T14:57:16.142Z,51.80
2017-12-02T14:59:44.830Z,54.10
2017-12-02T15:02:13.514Z,54.30
2017-12-02T15:04:41.924Z,54.30
2017-12-02T15:07:10.197Z,53.00
2017-12-02T15:09:38.524Z,52.40
2017-12-02T15:12:06.795Z,52.40
2017-12-02T15:14:35.082Z,50.80
2017-12-02T15:17:03.560Z,51.40
2017-12-02T15:19:31.892Z,50.70
2017-12-02T15:22:00.160Z,51.80
2017-12-02T15:24:28.408Z,52.70
2017-12-02T15:26:57.053Z,48.60
2017-12-02T15:29:25.297Z,48.70
2017-12-02T15:31:53.574Z,50.10
2017-12-02T15:34:21.880Z,48.90
2017-12-02T15:36:50.145Z,48.90
2017-12-02T15:39:19.352Z,44.10
2017-12-02T15:41:47.731Z,47.80
2017-12-02T15:44:15.964Z,47.70
2017-12-02T15:46:44.271Z,46.20
2017-12-02T15:49:12.903Z,47.00
2017-12-02T15:51:41.564Z,48.00
2017-12-02T15:54:09.805Z,48.00
2017-12-02T15:56:38.176Z,46.50
2017-12-02T15:59:06.429Z,46.50
2017-12-02T16:01:34.685Z,46.50
2017-12-02T16:04:03.204Z,46.10
2017-12-02T16:06:31.455Z,47.00
2017-12-02T16:09:00.738Z,46.70
2017-12-02T16:11:29.367Z,46.70
2017-12-02T16:13:57.696Z,48.90
2017-12-02T16:16:26.062Z,47.80
2017-12-02T16:18:54.325Z,49.20
2017-12-02T16:21:22.577Z,47.00
2017-12-02T16:23:50.982Z,48.40
2017-12-02T16:26:20.310Z,47.70
2017-12-02T16:28:48.972Z,51.50
2017-12-02T16:31:17.261Z,51.50
2017-12-02T16:33:45.877Z,50.20
2017-12-02T16:36:14.515Z,48.60
2017-12-02T16:38:42.846Z,48.60
2017-12-02T16:41:11.089Z,47.00
2017-12-02T16:43:39.445Z,47.00
2017-12-02T16:46:07.698Z,48.10
2017-12-02T16:48:35.938Z,47.70
2017-12-02T16:51:04.624Z,46.10
2017-12-02T16:53:32.876Z,46.10
2017-12-02T16:56:01.141Z,47.70
2017-12-02T16:58:29.420Z,49.60
2017-12-02T17:00:57.672Z,51.50
2017-12-02T17:03:25.992Z,52.00
2017-12-02T17:05:54.276Z,50.50
2017-12-02T17:08:22.913Z,51.40
2017-12-02T17:10:51.408Z,51.40
2017-12-02T17:13:19.701Z,52.10
2017-12-02T17:15:47.952Z,50.90
2017-12-02T17:18:16.231Z,49.50
2017-12-02T17:20:44.497Z,49.20
2017-12-02T17:23:12.760Z,48.30
2017-12-02T17:25:41.044Z,51.10
2017-12-02T17:28:09.320Z,49.00
2017-12-02T17:30:37.571Z,52.00
2017-12-02T17:33:05.858Z,51.20
2017-12-02T17:35:34.384Z,49.30
2017-12-02T17:38:02.629Z,50.80
2017-12-02T17:40:30.993Z,50.20
2017-12-02T17:42:59.231Z,49.20
2017-12-02T17:45:27.984Z,48.90
2017-12-02T17:47:56.321Z,48.90
2017-12-02T17:50:24.852Z,51.70
2017-12-02T17:52:53.108Z,51.80
2017-12-02T17:55:21.365Z,49.90
2017-12-02T17:57:49.608Z,51.40
2017-12-02T18:00:18.266Z,51.70
2017-12-02T18:02:46.621Z,51.70
2017-12-02T18:05:14.888Z,50.70
2017-12-02T18:07:43.400Z,49.50
2017-12-02T18:10:11.701Z,50.80
2017-12-02T18:12:40.044Z,51.50
2017-12-02T18:15:08.740Z,52.10
2017-12-02T18:17:37.409Z,52.30
2017-12-02T18:20:05.655Z,52.30
2017-12-02T18:22:33.930Z,51.70
2017-12-02T18:25:02.177Z,50.10
2017-12-02T18:27:30.821Z,51.40
2017-12-02T18:29:59.357Z,51.40
2017-12-02T18:32:27.596Z,50.90
2017-12-02T18:34:55.845Z,49.60
2017-12-02T18:37:24.118Z,50.90
2017-12-02T18:39:52.355Z,52.00
2017-12-02T18:42:20.674Z,51.80
2017-12-02T18:44:48.965Z,50.20
2017-12-02T18:47:17.243Z,51.80
2017-12-02T18:49:45.493Z,49.20
2017-12-02T18:52:13.783Z,52.10
2017-12-02T18:54:42.034Z,50.50
2017-12-02T18:57:10.283Z,51.80
2017-12-02T18:59:39.244Z,56.10
2017-12-02T19:02:07.484Z,56.00
2017-12-02T19:04:35.832Z,56.70
2017-12-02T19:07:04.085Z,55.70
2017-12-02T19:09:32.344Z,54.20
2017-12-02T19:12:00.619Z,52.90
2017-12-02T19:14:28.874Z,51.50
2017-12-02T19:16:57.116Z,51.10
2017-12-02T19:19:25.719Z,50.50
2017-12-02T19:21:54.588Z,49.60
2017-12-02T19:24:22.892Z,49.60
2017-12-02T19:26:51.195Z,48.70
2017-12-02T19:29:19.440Z,46.50
2017-12-02T19:31:47.967Z,48.40
2017-12-02T19:34:16.254Z,50.90
2017-12-02T19:36:44.510Z,49.90
2017-12-02T19:39:12.756Z,49.00
2017-12-02T19:41:41.049Z,50.80
2017-12-02T19:44:09.308Z,50.40
2017-12-02T19:46:37.572Z,48.00
2017-12-02T19:49:05.828Z,49.30
2017-12-02T19:51:34.076Z,49.60
2017-12-02T19:54:02.336Z,46.80
2017-12-02T19:56:31.044Z,47.70
2017-12-02T19:59:00.049Z,47.70
2017-12-02T20:01:28.405Z,50.70
2017-12-02T20:03:56.698Z,52.90
2017-12-02T20:06:25.156Z,53.20
2017-12-02T20:08:54.192Z,52.30
2017-12-02T20:11:23.459Z,51.80
2017-12-02T20:13:51.700Z,50.50
2017-12-02T20:16:19.962Z,52.00
2017-12-02T20:18:48.242Z,52.60
2017-12-02T20:21:16.772Z,50.90
2017-12-02T20:23:45.035Z,51.40
2017-12-02T20:26:13.271Z,53.00
2017-12-02T20:28:41.525Z,54.30
2017-12-02T20:31:09.778Z,53.20
2017-12-02T20:33:38.087Z,54.10
2017-12-02T20:36:06.387Z,53.30
2017-12-02T20:38:34.650Z,54.80
2017-12-02T20:41:02.892Z,53.80
2017-12-02T20:43:31.245Z,53.00
2017-12-02T20:45:59.524Z,53.50
2017-12-02T20:48:27.922Z,54.50
2017-12-02T20:50:56.252Z,52.70
2017-12-02T20:53:24.532Z,52.70
2017-12-02T20:55:52.769Z,54.30
2017-12-02T20:58:21.016Z,56.70
2017-12-02T21:00:49.782Z,55.20
2017-12-02T21:03:18.165Z,56.00
2017-12-02T21:05:46.405Z,55.80
2017-12-02T21:08:14.696Z,66.60
2017-12-02T21:10:43.009Z,58.80
2017-12-02T21:13:11.238Z,56.00
2017-12-02T21:15:39.538Z,55.40
2017-12-02T21:18:07.839Z,55.40
2017-12-02T21:20:36.475Z,54.50
2017-12-02T21:23:05.198Z,54.50
2017-12-02T21:25:33.452Z,57.70
2017-12-02T21:28:01.751Z,56.00
2017-12-02T21:30:30.119Z,49.00
2017-12-02T21:32:58.497Z,54.10
2017-12-02T21:35:27.237Z,52.10
2017-12-02T21:37:55.769Z,52.10
2017-12-02T21:40:24.187Z,52.30
2017-12-02T21:42:52.686Z,52.30
2017-12-02T21:45:21.338Z,52.90
2017-12-02T21:47:49.951Z,53.00
2017-12-02T21:50:19.108Z,46.40
2017-12-02T21:52:47.399Z,49.60
2017-12-02T21:55:15.655Z,49.30
2017-12-02T21:57:44.809Z,48.60
2017-12-02T22:00:13.438Z,49.30
2017-12-02T22:02:42.299Z,52.90
2017-12-02T22:05:11.183Z,52.70
2017-12-02T22:07:39.982Z,48.40
2017-12-02T22:10:09.467Z,52.40
2017-12-02T22:12:37.833Z,49.90
2017-12-02T22:15:06.097Z,53.50
2017-12-02T22:17:34.442Z,52.30
2017-12-02T22:20:02.860Z,51.20
2017-12-02T22:22:31.191Z,51.70
2017-12-02T22:24:59.571Z,48.40
2017-12-02T22:27:27.995Z,49.00
2017-12-02T22:29:56.725Z,49.30
2017-12-02T22:32:25.010Z,49.30
2017-12-02T22:34:53.433Z,51.40
2017-12-02T22:37:21.820Z,52.90
2017-12-02T22:39:50.097Z,55.10
2017-12-02T22:42:18.776Z,57.20
2017-12-02T22:44:47.037Z,57.20
2017-12-02T22:47:16.834Z,61.20
2017-12-02T22:49:46.972Z,60.80
2017-12-02T22:52:16.113Z,54.90
2017-12-02T22:54:44.967Z,54.90
2017-12-02T22:57:13.801Z,56.60
2017-12-02T22:59:42.820Z,57.40
2017-12-02T23:02:12.501Z,60.30
2017-12-02T23:04:42.883Z,60.30
2017-12-02T23:07:12.213Z,55.80
2017-12-02T23:09:41.084Z,55.80
2017-12-02T23:12:10.053Z,51.80
2017-12-02T23:14:38.568Z,51.70
2017-12-02T23:17:07.723Z,55.50
2017-12-02T23:19:36.776Z,55.40
2017-12-02T23:22:05.696Z,54.50
2017-12-02T23:24:34.800Z,52.60
2017-12-02T23:27:03.558Z,56.70
2017-12-02T23:29:32.327Z,56.30
2017-12-02T23:32:01.737Z,57.40
2017-12-02T23:34:30.495Z,54.30
2017-12-02T23:36:59.759Z,55.20
2017-12-02T23:39:29.341Z,55.20
2017-12-02T23:41:58.196Z,56.60
2017-12-02T23:44:26.911Z,59.10
2017-12-02T23:46:55.776Z,61.00
2017-12-02T23:49:24.767Z,59.50
2017-12-02T23:51:53.730Z,57.40
2017-12-02T23:54:22.577Z,55.50
2017-12-02T23:56:51.678Z,54.60
2017-12-02T23:59:20.341Z,56.30
